Barcelona-Gracia (Barcelonés)





Hora UTC 23:55
Humedad %
Presión hPa
Pluja 0.0 mm
Velocidad viento km/h
Dirección viento

Datos diarios 2023-09-27



Hora UTC (invierno +1h; verano +2h)
Temperatura (ºC) Humedad (%) Presión (hPa) Velocidad viento (km/h) Precipitación (mm)
Hora UTC Aire Humedad Presión Vel. Dir. Vel. Max Dir. Intent. máx 5 min.
00:05 20.9 75.0 1019.7 0.0 0.0 0.0
00:15 21.0 75.0 1019.7 0.0 8.0 0.0
00:25 21.1 75.0 1019.6 0.0 8.0 0.0
00:35 20.7 75.0 1019.5 0.0 8.0 0.0
00:45 20.7 75.0 1019.5 0.0 8.0 0.0
00:55 20.8 72.0 1019.5 0.0 8.0 0.0
01:05 20.6 72.0 1019.4 0.0 8.0 0.0
01:15 20.6 72.0 1019.4 0.0 8.0 0.0
01:25 20.9 70.0 1019.4 0.0 8.0 0.0
01:35 20.6 70.0 1019.3 0.0 8.0 0.0
01:45 20.5 71.0 1019.2 0.0 8.0 0.0
01:55 20.7 73.0 1019.1 0.0 8.0 0.0
02:05 20.6 73.0 1019.0 0.0 8.0 0.0
02:15 20.6 73.0 1018.9 0.0 8.0 0.0
02:25 20.5 73.0 1019.0 0.0 8.0 0.0
02:35 20.3 73.0 1018.9 0.0 8.0 0.0
02:45 20.2 73.0 1018.8 0.0 8.0 0.0
02:55 20.2 74.0 1018.7 0.0 8.0 0.0
03:05 20.1 74.0 1018.6 0.0 8.0 0.0
03:15 20.1 74.0 1018.7 0.0 8.0 0.0
03:25 20.1 75.0 1018.6 0.0 8.0 0.0
03:35 20.1 74.0 1018.5 0.0 8.0 0.0
03:45 20.2 74.0 1018.5 0.0 8.0 0.0
03:55 20.4 73.0 1018.5 1.6 8.0 0.0
04:05 20.4 74.0 1018.5 0.0 8.0 0.0
04:15 20.5 73.0 1018.4 0.0 8.0 0.0
04:25 20.3 75.0 1018.5 0.0 8.0 0.0
04:35 20.1 77.0 1018.5 0.0 8.0 0.0
04:45 19.9 77.0 1018.6 0.0 8.0 0.0
04:55 19.7 78.0 1018.5 0.0 8.0 0.0
05:05 19.5 78.0 1018.5 0.0 8.0 0.0
05:15 19.4 79.0 1018.5 0.0 8.0 0.0
05:25 19.3 80.0 1018.5 0.0 8.0 0.0
05:35 19.4 80.0 1018.5 0.0 8.0 0.0
05:45 19.4 80.0 1018.6 0.0 8.0 0.0
05:55 19.6 79.0 1018.7 0.0 8.0 0.0
06:05 19.8 79.0 1018.9 0.0 8.0 0.0
06:15 20.3 77.0 1018.9 0.0 8.0 0.0
06:25 20.7 75.0 1018.9 0.0 8.0 0.0
06:35 21.0 74.0 1019.0 0.0 8.0 0.0
06:45 21.6 72.0 1019.1 0.0 8.0 0.0
06:55 22.6 70.0 1019.0 0.0 8.0 0.0
07:05 23.2 66.0 1019.0 0.0 8.0 0.0
07:15 23.7 65.0 1019.0 0.0 8.0 0.0
07:25 23.5 65.0 1019.1 0.0 8.0 0.0
07:35 23.7 65.0 1019.2 0.0 8.0 0.0
07:45 24.4 63.0 1019.2 0.0 8.0 0.0
07:55 24.7 61.0 1019.3 0.0 8.0 0.0
08:05 24.0 62.0 1019.4 3.2 8.0 0.0
08:15 23.7 63.0 1019.3 1.6 8.0 0.0
08:25 24.3 62.0 1019.3 1.6 8.0 0.0
08:35 24.4 62.0 1019.4 1.6 8.0 0.0
08:45 24.6 62.0 1019.4 0.0 8.0 0.0
08:55 24.8 62.0 1019.4 0.0 8.0 0.0
09:05 24.7 63.0 1019.5 1.6 8.0 0.0
09:15 24.9 62.0 1019.6 1.6 8.0 0.0
09:25 24.9 60.0 1019.6 3.2 8.0 0.0
09:35 24.8 59.0 1019.5 12.9 12.9 0.0
09:45 24.7 60.0 1019.5 3.2 12.9 0.0
09:55 24.7 60.0 1019.5 6.4 14.5 0.0
10:05 25.0 59.0 1019.4 4.8 16.1 0.0
10:15 25.2 58.0 1019.4 4.8 16.1 0.0
10:25 25.6 57.0 1019.3 6.4 16.1 0.0
10:35 25.9 56.0 1019.3 8.0 16.1 0.0
10:45 26.2 56.0 1019.2 6.4 16.1 0.0
10:55 26.4 56.0 1019.1 0.0 16.1 0.0
11:05 26.9 54.0 1019.1 3.2 16.1 0.0
11:15 26.8 56.0 1019.1 8.0 17.7 0.0
11:25 26.9 60.0 1018.9 11.3 17.7 0.0
11:35 26.6 61.0 1018.8 8.0 20.9 0.0
11:45 26.9 61.0 1018.7 14.5 20.9 0.0
11:55 26.4 61.0 1018.6 8.0 20.9 0.0
12:05 26.4 62.0 1018.5 4.8 20.9 0.0
12:15 26.7 60.0 1018.4 8.0 20.9 0.0
12:25 26.6 62.0 1018.2 12.9 20.9 0.0
12:35 26.8 59.0 1018.1 16.1 20.9 0.0
12:45 26.7 59.0 1017.9 17.7 20.9 0.0
12:55 26.4 61.0 1017.9 11.3 22.5 0.0
13:05 26.1 63.0 1017.8 20.9 24.1 0.0
13:15 26.1 64.0 1017.6 17.7 25.7 0.0
13:25 26.2 63.0 1017.5 22.5 25.7 0.0
13:35 25.8 65.0 1017.5 14.5 25.7 0.0
13:45 25.7 66.0 1017.5 11.3 29.0 0.0
13:55 25.7 66.0 1017.5 24.1 29.0 0.0
14:05 25.6 67.0 1017.4 12.9 33.8 0.0
14:15 25.7 66.0 1017.2 14.5 33.8 0.0
14:25 25.8 67.0 1017.3 19.3 33.8 0.0
14:35 25.7 67.0 1017.1 12.9 33.8 0.0
14:45 25.8 63.0 1017.1 12.9 33.8 0.0
14:55 25.7 61.0 1017.1 19.3 33.8 0.0
15:05 25.7 61.0 1017.1 16.1 33.8 0.0
15:15 25.7 61.0 1017.0 16.1 33.8 0.0
15:25 25.7 62.0 1016.9 24.1 33.8 0.0
15:35 25.4 66.0 1016.7 20.9 33.8 0.0
15:45 25.3 64.0 1016.8 9.7 33.8 0.0
15:55 25.2 63.0 1016.9 11.3 33.8 0.0
16:05 25.1 64.0 1016.9 11.3 33.8 0.0
16:15 25.1 66.0 1016.9 14.5 33.8 0.0
16:25 24.8 70.0 1017.0 12.9 33.8 0.0
16:35 24.9 70.0 1017.0 16.1 33.8 0.0
16:45 24.9 70.0 1017.0 16.1 33.8 0.0
16:55 24.9 70.0 1017.0 16.1 33.8 0.0
17:05 24.9 70.0 1017.0 16.1 33.8 0.0
17:15 24.9 70.0 1017.0 16.1 33.8 0.0
17:25 24.9 70.0 1017.0 16.1 33.8 0.0
17:35 24.9 70.0 1017.0 16.1 33.8 0.0
17:45 24.9 70.0 1017.0 16.1 33.8 0.0
17:55 24.9 70.0 1017.0 16.1 33.8 0.0
18:05 24.9 70.0 1017.0 16.1 33.8 0.0
19:05 24.9 70.0 1017.0 16.1 33.8 0.0
19:15 0.0
19:25 0.0
19:35 0.0
19:45 0.0
19:55 0.0
20:05 0.0
20:15 0.0
20:25 0.0
20:35 0.0
20:45 0.0
20:55 0.0
21:05 0.0
21:15 0.0
21:25 0.0
21:35 0.0
21:45 0.0
21:55 0.0
22:05 0.0
22:15 0.0
22:25 0.0
22:35 0.0
22:45 0.0
22:55 0.0
23:05 0.0
23:15 0.0
23:25 0.0
23:35 0.0
23:45 0.0
23:55 0.0
Máxima 26.9 80.0 1019.7 24.1 33.8 0.0
Mínima 19.3 54.0 1016.7
Total 0.0